createdAt,value
2022-09-02T00:03:35.579Z,100652.56
2022-09-02T00:13:38.588Z,100630.16
2022-09-02T00:23:43.082Z,100636.87
2022-09-02T00:33:46.426Z,100631.13
2022-09-02T00:43:57.066Z,100629.66
2022-09-02T00:54:00.415Z,100625.06
2022-09-02T01:04:03.634Z,100626.75
2022-09-02T01:14:07.564Z,100624.47
2022-09-02T01:24:11.619Z,100600.25
2022-09-02T01:34:14.820Z,100634.06
2022-09-02T01:44:17.978Z,100626.47
2022-09-02T01:54:23.288Z,100620.59
2022-09-02T02:04:27.770Z,100619.16
2022-09-02T02:14:31.097Z,100604.00
2022-09-02T02:24:34.252Z,100601.81
2022-09-02T02:34:37.292Z,100605.19
2022-09-02T02:44:41.190Z,100597.81
2022-09-02T02:54:44.369Z,100604.22
2022-09-02T03:04:47.407Z,100597.94
2022-09-02T03:14:51.739Z,100596.59
2022-09-02T03:24:55.219Z,100589.25
2022-09-02T03:34:59.332Z,100601.16
2022-09-02T03:45:04.542Z,100597.06
2022-09-02T03:55:07.951Z,100608.72
2022-09-02T04:05:15.973Z,100613.03
2022-09-02T04:15:21.052Z,100623.59
2022-09-02T04:25:27.787Z,100624.34
2022-09-02T04:35:32.448Z,100617.25
2022-09-02T04:45:36.050Z,100617.63
2022-09-02T04:55:41.262Z,100626.81
2022-09-02T05:05:44.518Z,100614.94
2022-09-02T05:15:47.743Z,100622.56
2022-09-02T05:25:51.445Z,100621.94
2022-09-02T05:35:54.839Z,100626.06
2022-09-02T05:46:00.003Z,100630.88
2022-09-02T05:56:06.827Z,100615.81
2022-09-02T06:06:11.045Z,100609.97
2022-09-02T06:16:19.580Z,100613.66
2022-09-02T06:26:23.333Z,100618.19
2022-09-02T06:36:30.384Z,100616.97
2022-09-02T06:46:38.965Z,100616.13
2022-09-02T06:56:48.585Z,100625.53
2022-09-02T07:06:55.173Z,100626.47
2022-09-02T07:17:00.748Z,100627.50
2022-09-02T07:27:05.986Z,100637.78
2022-09-02T07:37:11.102Z,100636.38
2022-09-02T07:47:15.018Z,100638.03
2022-09-02T07:57:20.511Z,100648.66
2022-09-02T08:07:24.437Z,100646.72
2022-09-02T08:17:27.788Z,100644.13
2022-09-02T08:27:32.308Z,100641.41
2022-09-02T08:37:36.654Z,100644.09
2022-09-02T08:47:44.214Z,100648.22
2022-09-02T08:57:47.421Z,100643.94
2022-09-02T09:08:05.019Z,100646.78
2022-09-02T09:18:13.715Z,100647.81
2022-09-02T09:28:16.764Z,100653.66
2022-09-02T09:38:32.079Z,100657.84
2022-09-02T09:48:38.959Z,100667.41
2022-09-02T09:58:41.858Z,100668.47
2022-09-02T10:08:57.631Z,100673.06
2022-09-02T10:19:23.567Z,100680.53
2022-09-02T10:29:45.435Z,100684.37
2022-09-02T10:39:57.477Z,100675.53
2022-09-02T10:50:12.170Z,100673.66
2022-09-02T11:00:23.242Z,100680.28
2022-09-02T11:10:39.585Z,100678.78
2022-09-02T11:21:04.004Z,100685.31
2022-09-02T11:31:19.535Z,100690.38
2022-09-02T11:41:34.344Z,100685.13
2022-09-02T11:52:06.501Z,100672.88
2022-09-02T12:02:12.886Z,100679.91
2022-09-02T12:12:38.372Z,100679.41
2022-09-02T12:22:42.130Z,100675.00
2022-09-02T12:33:02.490Z,100658.81
2022-09-02T12:43:20.013Z,100668.47
2022-09-02T12:53:23.400Z,100681.34
2022-09-02T13:03:35.322Z,100676.28
2022-09-02T13:14:25.971Z,100674.37
2022-09-02T13:25:26.706Z,100670.16
2022-09-02T13:35:29.929Z,100667.84
2022-09-02T13:45:35.469Z,100666.75
2022-09-02T13:55:43.635Z,100653.06
2022-09-02T14:05:55.851Z,100652.31
2022-09-02T14:16:44.313Z,100649.88
2022-09-02T14:26:50.103Z,100647.09
2022-09-02T14:36:53.140Z,100647.56
2022-09-02T14:47:00.473Z,100648.53
2022-09-02T14:57:05.217Z,100659.38
2022-09-02T15:07:08.295Z,100654.56
2022-09-02T15:17:14.748Z,100645.91
2022-09-02T15:27:21.525Z,100634.84
2022-09-02T15:37:26.261Z,100628.78
2022-09-02T15:47:30.681Z,100623.13
2022-09-02T15:57:33.825Z,100637.66
2022-09-02T16:07:37.068Z,100640.06
2022-09-02T16:17:41.184Z,100636.94
2022-09-02T16:27:53.217Z,100634.75
2022-09-02T16:37:57.515Z,100632.94
2022-09-02T16:48:00.762Z,100634.84
2022-09-02T16:58:03.799Z,100639.56
2022-09-02T17:08:07.641Z,100642.03
2022-09-02T17:18:10.798Z,100640.72
2022-09-02T17:28:15.952Z,100643.38
2022-09-02T17:38:27.345Z,100644.44
2022-09-02T17:48:41.630Z,100636.41
2022-09-02T17:59:25.941Z,100647.91
2022-09-02T18:09:29.786Z,100650.44
2022-09-02T18:19:43.893Z,100664.63
2022-09-02T18:30:06.400Z,100659.78
2022-09-02T18:40:15.478Z,100662.41
2022-09-02T19:00:55.699Z,100641.03
2022-09-02T19:11:09.482Z,100653.91
2022-09-02T19:21:25.321Z,100653.59
2022-09-02T19:31:32.686Z,100658.25
2022-09-02T19:41:36.426Z,100651.09
2022-09-02T19:51:39.862Z,100666.63
2022-09-02T20:01:43.261Z,100676.97
2022-09-02T20:11:46.991Z,100683.94
2022-09-02T20:21:49.990Z,100685.31
2022-09-02T20:31:59.051Z,100676.84
2022-09-02T20:42:21.397Z,100674.44
2022-09-02T20:52:36.042Z,100676.00
2022-09-02T21:02:45.094Z,100678.78
2022-09-02T21:13:02.481Z,100673.59
2022-09-02T21:23:21.496Z,100662.44
2022-09-02T21:33:28.761Z,100664.75
2022-09-02T21:44:06.901Z,100674.91
2022-09-02T21:54:40.852Z,100679.00
2022-09-02T22:05:08.230Z,100672.16
2022-09-02T22:15:22.258Z,100670.87
2022-09-02T22:25:25.716Z,100685.88
2022-09-02T22:35:41.367Z,100681.88
2022-09-02T22:46:14.951Z,100671.97
2022-09-02T22:56:39.473Z,100672.84
2022-09-02T23:06:44.685Z,100677.87
2022-09-02T23:17:57.304Z,100666.25
2022-09-02T23:28:10.094Z,100664.06
2022-09-02T23:38:35.097Z,100672.72
2022-09-02T23:49:06.584Z,100667.16
2022-09-02T23:59:15.453Z,100664.28
